sensor_id;sensor_type;location;lat;lon;timestamp;pressure;altitude;pressure_sealevel;temperature;humidity
27712;BME280;2377;51.734;8.950;2023-02-28T00:00:38;99123.34;;;1.11;64.39
27712;BME280;2377;51.734;8.950;2023-02-28T00:03:05;99128.38;;;1.11;64.09
27712;BME280;2377;51.734;8.950;2023-02-28T00:05:34;99120.81;;;1.11;63.36
27712;BME280;2377;51.734;8.950;2023-02-28T00:08:01;99125.72;;;1.12;63.72
27712;BME280;2377;51.734;8.950;2023-02-28T00:10:31;99119.88;;;1.12;64.22
27712;BME280;2377;51.734;8.950;2023-02-28T00:13:02;99121.47;;;1.13;64.40
27712;BME280;2377;51.734;8.950;2023-02-28T00:15:31;99116.44;;;1.13;63.94
27712;BME280;2377;51.734;8.950;2023-02-28T00:17:58;99118.06;;;1.14;63.60
27712;BME280;2377;51.734;8.950;2023-02-28T00:20:26;99114.84;;;1.12;63.21
27712;BME280;2377;51.734;8.950;2023-02-28T00:22:53;99118.97;;;1.13;63.44
27712;BME280;2377;51.734;8.950;2023-02-28T00:25:25;99118.41;;;1.09;63.31
27712;BME280;2377;51.734;8.950;2023-02-28T00:27:53;99121.84;;;1.08;63.74
27712;BME280;2377;51.734;8.950;2023-02-28T00:30:22;99114.41;;;1.07;63.81
27712;BME280;2377;51.734;8.950;2023-02-28T00:32:50;99117.84;;;1.05;63.55
27712;BME280;2377;51.734;8.950;2023-02-28T00:35:18;99108.94;;;1.01;63.19
27712;BME280;2377;51.734;8.950;2023-02-28T00:37:45;99113.41;;;0.98;62.92
27712;BME280;2377;51.734;8.950;2023-02-28T00:40:14;99114.44;;;0.95;63.48
27712;BME280;2377;51.734;8.950;2023-02-28T00:42:41;99117.88;;;0.94;63.29
27712;BME280;2377;51.734;8.950;2023-02-28T00:45:10;99108.81;;;0.92;63.28
27712;BME280;2377;51.734;8.950;2023-02-28T00:47:37;99113.06;;;0.91;63.27
27712;BME280;2377;51.734;8.950;2023-02-28T00:50:06;99108.03;;;0.91;62.47
27712;BME280;2377;51.734;8.950;2023-02-28T00:52:34;99118.59;;;0.85;62.16
27712;BME280;2377;51.734;8.950;2023-02-28T00:55:01;99117.75;;;0.84;62.52
27712;BME280;2377;51.734;8.950;2023-02-28T00:57:28;99118.00;;;0.81;62.68
27712;BME280;2377;51.734;8.950;2023-02-28T00:59:55;99114.81;;;0.79;63.11
27712;BME280;2377;51.734;8.950;2023-02-28T01:02:23;99105.00;;;0.76;62.59
27712;BME280;2377;51.734;8.950;2023-02-28T01:04:50;99109.34;;;0.74;63.02
27712;BME280;2377;51.734;8.950;2023-02-28T01:07:18;99112.88;;;0.72;62.55
27712;BME280;2377;51.734;8.950;2023-02-28T01:09:45;99114.72;;;0.70;62.46
27712;BME280;2377;51.734;8.950;2023-02-28T01:12:12;99115.19;;;0.63;62.21
27712;BME280;2377;51.734;8.950;2023-02-28T01:14:39;99112.78;;;0.62;62.36
27712;BME280;2377;51.734;8.950;2023-02-28T01:17:07;99110.50;;;0.59;63.04
27712;BME280;2377;51.734;8.950;2023-02-28T01:19:35;99109.81;;;0.57;62.45
27712;BME280;2377;51.734;8.950;2023-02-28T01:22:04;99111.06;;;0.51;62.55
27712;BME280;2377;51.734;8.950;2023-02-28T01:24:32;99106.28;;;0.48;62.69
27712;BME280;2377;51.734;8.950;2023-02-28T01:26:59;99108.09;;;0.46;62.82
27712;BME280;2377;51.734;8.950;2023-02-28T01:29:26;99109.13;;;0.44;62.76
27712;BME280;2377;51.734;8.950;2023-02-28T01:31:53;99107.66;;;0.41;62.70
27712;BME280;2377;51.734;8.950;2023-02-28T01:34:20;99104.44;;;0.39;62.53
27712;BME280;2377;51.734;8.950;2023-02-28T01:36:49;99105.38;;;0.38;62.90
27712;BME280;2377;51.734;8.950;2023-02-28T01:39:16;99104.78;;;0.34;62.98
27712;BME280;2377;51.734;8.950;2023-02-28T01:41:43;99103.31;;;0.32;62.80
27712;BME280;2377;51.734;8.950;2023-02-28T01:44:56;99100.34;;;0.27;62.78
27712;BME280;2377;51.734;8.950;2023-02-28T01:47:27;99098.06;;;0.24;62.17
27712;BME280;2377;51.734;8.950;2023-02-28T01:49:56;99104.91;;;0.22;62.28
27712;BME280;2377;51.734;8.950;2023-02-28T01:52:27;99106.94;;;0.16;62.15
27712;BME280;2377;51.734;8.950;2023-02-28T01:54:58;99102.16;;;0.13;62.22
27712;BME280;2377;51.734;8.950;2023-02-28T01:57:31;99109.00;;;0.11;62.27
27712;BME280;2377;51.734;8.950;2023-02-28T02:00:08;99100.66;;;0.11;62.14
27712;BME280;2377;51.734;8.950;2023-02-28T02:02:37;99103.28;;;0.09;62.17
27712;BME280;2377;51.734;8.950;2023-02-28T02:05:07;99103.97;;;0.11;62.19
27712;BME280;2377;51.734;8.950;2023-02-28T02:07:40;99094.16;;;0.08;61.96
27712;BME280;2377;51.734;8.950;2023-02-28T02:10:15;99096.78;;;0.07;61.96
27712;BME280;2377;51.734;8.950;2023-02-28T02:13:08;99092.78;;;0.04;62.12
27712;BME280;2377;51.734;8.950;2023-02-28T02:15:44;99097.81;;;0.04;62.21
27712;BME280;2377;51.734;8.950;2023-02-28T02:18:26;99094.50;;;0.04;61.99
27712;BME280;2377;51.734;8.950;2023-02-28T02:27:39;99085.47;;;0.01;61.95
27712;BME280;2377;51.734;8.950;2023-02-28T02:30:37;99085.56;;;-0.01;62.20
27712;BME280;2377;51.734;8.950;2023-02-28T02:33:47;99090.03;;;-0.04;62.25
27712;BME280;2377;51.734;8.950;2023-02-28T02:36:24;99086.16;;;-0.08;62.30
27712;BME280;2377;51.734;8.950;2023-02-28T02:39:01;99078.84;;;-0.11;62.31
27712;BME280;2377;51.734;8.950;2023-02-28T02:41:37;99078.16;;;-0.13;62.70
27712;BME280;2377;51.734;8.950;2023-02-28T02:44:14;99086.56;;;-0.14;62.52
27712;BME280;2377;51.734;8.950;2023-02-28T02:46:45;99083.50;;;-0.18;62.42
27712;BME280;2377;51.734;8.950;2023-02-28T02:49:20;99084.31;;;-0.17;62.89
27712;BME280;2377;51.734;8.950;2023-02-28T02:51:51;99080.06;;;-0.17;62.48
27712;BME280;2377;51.734;8.950;2023-02-28T02:54:24;99086.72;;;-0.16;62.46
27712;BME280;2377;51.734;8.950;2023-02-28T02:56:58;99083.41;;;-0.16;62.63
27712;BME280;2377;51.734;8.950;2023-02-28T02:59:28;99089.31;;;-0.17;62.47
27712;BME280;2377;51.734;8.950;2023-02-28T03:02:00;99081.22;;;-0.21;63.00
27712;BME280;2377;51.734;8.950;2023-02-28T03:04:33;99084.75;;;-0.24;63.07
27712;BME280;2377;51.734;8.950;2023-02-28T03:07:03;99084.16;;;-0.27;62.94
27712;BME280;2377;51.734;8.950;2023-02-28T03:09:34;99087.00;;;-0.32;63.35
27712;BME280;2377;51.734;8.950;2023-02-28T03:12:03;99089.84;;;-0.36;63.38
27712;BME280;2377;51.734;8.950;2023-02-28T03:14:48;99089.28;;;-0.40;63.24
27712;BME280;2377;51.734;8.950;2023-02-28T03:17:42;99087.13;;;-0.45;63.56
27712;BME280;2377;51.734;8.950;2023-02-28T03:20:25;99086.53;;;-0.48;62.94
27712;BME280;2377;51.734;8.950;2023-02-28T03:23:10;99078.53;;;-0.53;62.97
27712;BME280;2377;51.734;8.950;2023-02-28T03:25:54;99084.44;;;-0.54;63.07
27712;BME280;2377;51.734;8.950;2023-02-28T03:28:33;99080.56;;;-0.58;63.02
27712;BME280;2377;51.734;8.950;2023-02-28T03:31:12;99085.22;;;-0.65;63.20
27712;BME280;2377;51.734;8.950;2023-02-28T03:33:48;99077.22;;;-0.70;63.41
27712;BME280;2377;51.734;8.950;2023-02-28T03:36:26;99080.25;;;-0.78;63.48
27712;BME280;2377;51.734;8.950;2023-02-28T03:39:02;99077.06;;;-0.80;63.81
27712;BME280;2377;51.734;8.950;2023-02-28T03:41:36;99081.50;;;-0.83;64.00
27712;BME280;2377;51.734;8.950;2023-02-28T03:44:13;99089.34;;;-0.88;63.93
27712;BME280;2377;51.734;8.950;2023-02-28T03:46:50;99082.34;;;-0.96;64.07
27712;BME280;2377;51.734;8.950;2023-02-28T03:49:23;99093.41;;;-0.98;64.34
27712;BME280;2377;51.734;8.950;2023-02-28T03:51:54;99081.19;;;-1.03;64.87
27712;BME280;2377;51.734;8.950;2023-02-28T03:54:29;99082.19;;;-1.05;65.17
27712;BME280;2377;51.734;8.950;2023-02-28T03:57:03;99084.81;;;-1.07;65.12
27712;BME280;2377;51.734;8.950;2023-02-28T03:59:37;99078.28;;;-1.10;65.60
27712;BME280;2377;51.734;8.950;2023-02-28T04:02:07;99079.41;;;-1.14;65.48
27712;BME280;2377;51.734;8.950;2023-02-28T04:04:34;99077.13;;;-1.17;65.45
27712;BME280;2377;51.734;8.950;2023-02-28T04:07:04;99081.34;;;-1.17;65.50
27712;BME280;2377;51.734;8.950;2023-02-28T04:09:33;99077.44;;;-1.21;65.81
27712;BME280;2377;51.734;8.950;2023-02-28T04:12:00;99086.66;;;-1.22;65.93
27712;BME280;2377;51.734;8.950;2023-02-28T04:14:27;99080.94;;;-1.24;66.60
27712;BME280;2377;51.734;8.950;2023-02-28T04:16:54;99087.69;;;-1.24;66.56
27712;BME280;2377;51.734;8.950;2023-02-28T04:19:21;99078.53;;;-1.25;66.81
27712;BME280;2377;51.734;8.950;2023-02-28T04:21:50;99080.25;;;-1.26;66.84
27712;BME280;2377;51.734;8.950;2023-02-28T04:24:21;99075.94;;;-1.24;66.94
27712;BME280;2377;51.734;8.950;2023-02-28T04:26:53;99080.25;;;-1.26;67.29
27712;BME280;2377;51.734;8.950;2023-02-28T04:29:23;99081.13;;;-1.27;67.11
27712;BME280;2377;51.734;8.950;2023-02-28T04:31:51;99093.69;;;-1.27;67.08
27712;BME280;2377;51.734;8.950;2023-02-28T04:34:19;99090.50;;;-1.29;67.41
27712;BME280;2377;51.734;8.950;2023-02-28T04:36:46;99088.78;;;-1.29;68.11
27712;BME280;2377;51.734;8.950;2023-02-28T04:39:15;99092.88;;;-1.28;68.50
27712;BME280;2377;51.734;8.950;2023-02-28T04:41:44;99090.06;;;-1.23;67.97
27712;BME280;2377;51.734;8.950;2023-02-28T04:44:12;99084.03;;;-1.20;68.72
27712;BME280;2377;51.734;8.950;2023-02-28T04:46:40;99091.47;;;-1.19;69.10
27712;BME280;2377;51.734;8.950;2023-02-28T04:49:08;99087.84;;;-1.15;69.13
27712;BME280;2377;51.734;8.950;2023-02-28T04:51:37;99096.75;;;-1.11;68.92
27712;BME280;2377;51.734;8.950;2023-02-28T04:54:04;99091.72;;;-1.11;69.18
27712;BME280;2377;51.734;8.950;2023-02-28T04:56:32;99097.44;;;-1.09;70.08
27712;BME280;2377;51.734;8.950;2023-02-28T04:58:59;99091.22;;;-1.03;69.86
27712;BME280;2377;51.734;8.950;2023-02-28T05:01:29;99094.19;;;-0.98;69.86
27712;BME280;2377;51.734;8.950;2023-02-28T05:04:00;99094.09;;;-0.96;69.92
27712;BME280;2377;51.734;8.950;2023-02-28T05:06:30;99093.19;;;-0.95;70.31
27712;BME280;2377;51.734;8.950;2023-02-28T05:08:58;99094.69;;;-0.93;70.20
27712;BME280;2377;51.734;8.950;2023-02-28T05:11:29;99089.34;;;-0.88;70.14
27712;BME280;2377;51.734;8.950;2023-02-28T05:14:00;99093.34;;;-0.86;70.21
27712;BME280;2377;51.734;8.950;2023-02-28T05:16:29;99098.84;;;-0.80;70.08
27712;BME280;2377;51.734;8.950;2023-02-28T05:18:56;99098.63;;;-0.77;70.04
27712;BME280;2377;51.734;8.950;2023-02-28T05:21:30;99097.72;;;-0.76;70.51
27712;BME280;2377;51.734;8.950;2023-02-28T05:24:00;99091.91;;;-0.77;70.31
27712;BME280;2377;51.734;8.950;2023-02-28T05:26:28;99090.09;;;-0.75;70.56
27712;BME280;2377;51.734;8.950;2023-02-28T05:28:55;99091.91;;;-0.77;70.13
27712;BME280;2377;51.734;8.950;2023-02-28T05:31:23;99093.81;;;-0.80;69.72
27712;BME280;2377;51.734;8.950;2023-02-28T05:33:52;99100.78;;;-0.84;69.13
27712;BME280;2377;51.734;8.950;2023-02-28T05:36:21;99094.34;;;-0.88;69.24
27712;BME280;2377;51.734;8.950;2023-02-28T05:38:49;99098.44;;;-0.87;68.89
27712;BME280;2377;51.734;8.950;2023-02-28T05:41:18;99104.16;;;-0.85;68.77
27712;BME280;2377;51.734;8.950;2023-02-28T05:43:46;99098.03;;;-0.81;67.89
27712;BME280;2377;51.734;8.950;2023-02-28T05:46:13;99103.06;;;-0.81;67.78
27712;BME280;2377;51.734;8.950;2023-02-28T05:48:46;99107.59;;;-0.86;67.30
27712;BME280;2377;51.734;8.950;2023-02-28T05:51:15;99113.03;;;-0.92;67.70
27712;BME280;2377;51.734;8.950;2023-02-28T05:53:43;99105.72;;;-0.95;67.55
27712;BME280;2377;51.734;8.950;2023-02-28T05:56:10;99100.22;;;-1.00;67.80
27712;BME280;2377;51.734;8.950;2023-02-28T05:58:37;99098.84;;;-1.04;67.48
27712;BME280;2377;51.734;8.950;2023-02-28T06:01:24;99099.38;;;-1.12;67.96
27712;BME280;2377;51.734;8.950;2023-02-28T06:03:53;99107.22;;;-1.17;67.94
27712;BME280;2377;51.734;8.950;2023-02-28T06:06:21;99108.09;;;-1.18;68.04
27712;BME280;2377;51.734;8.950;2023-02-28T06:08:48;99107.53;;;-1.21;67.92
27712;BME280;2377;51.734;8.950;2023-02-28T06:11:15;99110.34;;;-1.26;67.94
27712;BME280;2377;51.734;8.950;2023-02-28T06:13:43;99106.44;;;-1.30;67.98
27712;BME280;2377;51.734;8.950;2023-02-28T06:16:11;99115.06;;;-1.34;67.43
27712;BME280;2377;51.734;8.950;2023-02-28T06:18:38;99107.97;;;-1.40;67.72
27712;BME280;2377;51.734;8.950;2023-02-28T06:21:05;99120.50;;;-1.40;67.51
27712;BME280;2377;51.734;8.950;2023-02-28T06:23:33;99116.38;;;-1.41;67.76
27712;BME280;2377;51.734;8.950;2023-02-28T06:26:00;99120.13;;;-1.47;67.63
27712;BME280;2377;51.734;8.950;2023-02-28T06:28:28;99125.22;;;-1.49;67.58
27712;BME280;2377;51.734;8.950;2023-02-28T06:30:55;99129.53;;;-1.51;67.94
27712;BME280;2377;51.734;8.950;2023-02-28T06:33:22;99128.03;;;-1.53;67.78
27712;BME280;2377;51.734;8.950;2023-02-28T06:35:51;99130.66;;;-1.55;68.11
27712;BME280;2377;51.734;8.950;2023-02-28T06:38:18;99133.16;;;-1.55;68.29
27712;BME280;2377;51.734;8.950;2023-02-28T06:40:53;99127.38;;;-1.55;68.09
27712;BME280;2377;51.734;8.950;2023-02-28T06:43:21;99126.53;;;-1.56;68.37
27712;BME280;2377;51.734;8.950;2023-02-28T06:45:48;99138.19;;;-1.55;68.49
27712;BME280;2377;51.734;8.950;2023-02-28T06:48:15;99131.38;;;-1.53;68.46
27712;BME280;2377;51.734;8.950;2023-02-28T06:50:43;99139.47;;;-1.49;68.60
27712;BME280;2377;51.734;8.950;2023-02-28T06:53:10;99139.16;;;-1.44;69.01
27712;BME280;2377;51.734;8.950;2023-02-28T06:55:38;99138.06;;;-1.40;68.75
27712;BME280;2377;51.734;8.950;2023-02-28T06:58:06;99145.84;;;-1.32;68.61
27712;BME280;2377;51.734;8.950;2023-02-28T07:00:40;99145.25;;;-1.23;68.96
27712;BME280;2377;51.734;8.950;2023-02-28T07:03:08;99141.22;;;-1.13;69.05
27712;BME280;2377;51.734;8.950;2023-02-28T07:05:35;99144.09;;;-1.06;68.63
27712;BME280;2377;51.734;8.950;2023-02-28T07:08:03;99141.25;;;-1.01;68.80
27712;BME280;2377;51.734;8.950;2023-02-28T07:10:32;99151.81;;;-0.96;68.62
27712;BME280;2377;51.734;8.950;2023-02-28T07:12:59;99156.59;;;-0.93;68.86
27712;BME280;2377;51.734;8.950;2023-02-28T07:15:28;99155.00;;;-0.94;69.02
27712;BME280;2377;51.734;8.950;2023-02-28T07:17:55;99153.41;;;-0.95;69.36
27712;BME280;2377;51.734;8.950;2023-02-28T07:20:23;99161.03;;;-0.97;69.31
27712;BME280;2377;51.734;8.950;2023-02-28T07:22:50;99164.34;;;-0.96;69.11
27712;BME280;2377;51.734;8.950;2023-02-28T07:25:22;99160.22;;;-0.97;69.05
27712;BME280;2377;51.734;8.950;2023-02-28T07:27:49;99169.38;;;-0.96;68.93
27712;BME280;2377;51.734;8.950;2023-02-28T07:30:17;99162.03;;;-0.99;68.77
27712;BME280;2377;51.734;8.950;2023-02-28T07:32:46;99159.44;;;-0.98;68.76
27712;BME280;2377;51.734;8.950;2023-02-28T07:35:13;99155.69;;;-0.92;68.74
27712;BME280;2377;51.734;8.950;2023-02-28T07:37:41;99158.81;;;-0.89;69.08
27712;BME280;2377;51.734;8.950;2023-02-28T07:40:11;99163.38;;;-0.82;68.41
27712;BME280;2377;51.734;8.950;2023-02-28T07:42:39;99162.41;;;-0.80;68.69
27712;BME280;2377;51.734;8.950;2023-02-28T07:45:09;99159.66;;;-0.77;68.65
27712;BME280;2377;51.734;8.950;2023-02-28T07:47:38;99161.25;;;-0.76;67.88
27712;BME280;2377;51.734;8.950;2023-02-28T07:50:10;99161.72;;;-0.71;68.73
27712;BME280;2377;51.734;8.950;2023-02-28T07:52:38;99160.41;;;-0.64;68.44
27712;BME280;2377;51.734;8.950;2023-02-28T07:55:08;99161.78;;;-0.59;68.88
27712;BME280;2377;51.734;8.950;2023-02-28T07:57:36;99160.47;;;-0.52;68.67
27712;BME280;2377;51.734;8.950;2023-02-28T08:00:04;99163.34;;;-0.46;68.70
27712;BME280;2377;51.734;8.950;2023-02-28T08:02:31;99169.66;;;-0.40;68.46
27712;BME280;2377;51.734;8.950;2023-02-28T08:05:00;99168.97;;;-0.31;68.54
27712;BME280;2377;51.734;8.950;2023-02-28T08:07:28;99165.72;;;-0.20;68.73
27712;BME280;2377;51.734;8.950;2023-02-28T08:09:55;99170.88;;;-0.10;68.33
27712;BME280;2377;51.734;8.950;2023-02-28T08:12:22;99166.81;;;0.00;68.22
27712;BME280;2377;51.734;8.950;2023-02-28T08:14:49;99172.44;;;0.15;68.49
27712;BME280;2377;51.734;8.950;2023-02-28T08:17:17;99175.53;;;0.30;68.51
27712;BME280;2377;51.734;8.950;2023-02-28T08:19:45;99166.38;;;0.40;68.50
27712;BME280;2377;51.734;8.950;2023-02-28T08:22:13;99172.59;;;0.47;67.30
27712;BME280;2377;51.734;8.950;2023-02-28T08:24:42;99167.78;;;0.55;67.53
27712;BME280;2377;51.734;8.950;2023-02-28T08:27:10;99163.88;;;0.62;67.21
27712;BME280;2377;51.734;8.950;2023-02-28T08:29:38;99167.53;;;0.70;66.59
27712;BME280;2377;51.734;8.950;2023-02-28T08:32:05;99173.72;;;0.77;67.00
27712;BME280;2377;51.734;8.950;2023-02-28T08:34:32;99166.63;;;0.82;66.87
27712;BME280;2377;51.734;8.950;2023-02-28T08:37:02;99167.09;;;0.87;67.14
27712;BME280;2377;51.734;8.950;2023-02-28T08:39:29;99166.00;;;1.01;67.58
27712;BME280;2377;51.734;8.950;2023-02-28T08:41:57;99162.44;;;1.26;67.39
27712;BME280;2377;51.734;8.950;2023-02-28T08:44:24;99167.75;;;1.44;66.19
27712;BME280;2377;51.734;8.950;2023-02-28T08:46:53;99172.31;;;1.50;65.26
27712;BME280;2377;51.734;8.950;2023-02-28T08:49:20;99171.84;;;1.56;65.62
27712;BME280;2377;51.734;8.950;2023-02-28T08:51:47;99176.50;;;1.61;64.55
27712;BME280;2377;51.734;8.950;2023-02-28T08:54:14;99180.50;;;1.63;64.81
27712;BME280;2377;51.734;8.950;2023-02-28T08:56:45;99185.38;;;1.76;64.62
27712;BME280;2377;51.734;8.950;2023-02-28T08:59:13;99182.94;;;1.86;64.50
27712;BME280;2377;51.734;8.950;2023-02-28T09:01:41;99178.19;;;1.93;63.97
27712;BME280;2377;51.734;8.950;2023-02-28T09:04:09;99183.78;;;1.96;62.89
27712;BME280;2377;51.734;8.950;2023-02-28T09:06:40;99186.63;;;2.03;63.65
27712;BME280;2377;51.734;8.950;2023-02-28T09:09:07;99183.59;;;2.09;63.67
27712;BME280;2377;51.734;8.950;2023-02-28T09:11:35;99185.38;;;2.18;63.53
27712;BME280;2377;51.734;8.950;2023-02-28T09:14:03;99182.25;;;2.26;62.69
27712;BME280;2377;51.734;8.950;2023-02-28T09:16:33;99179.91;;;2.34;62.76
27712;BME280;2377;51.734;8.950;2023-02-28T09:19:01;99180.13;;;2.52;64.40
27712;BME280;2377;51.734;8.950;2023-02-28T09:21:28;99178.16;;;2.65;62.36
27712;BME280;2377;51.734;8.950;2023-02-28T09:23:55;99182.84;;;2.70;63.59
27712;BME280;2377;51.734;8.950;2023-02-28T09:26:25;99178.09;;;2.86;61.83
27712;BME280;2377;51.734;8.950;2023-02-28T09:28:54;99178.97;;;3.06;61.59
27712;BME280;2377;51.734;8.950;2023-02-28T09:31:25;99178.31;;;3.24;61.25
27712;BME280;2377;51.734;8.950;2023-02-28T09:33:57;99182.09;;;3.49;61.88
27712;BME280;2377;51.734;8.950;2023-02-28T09:36:26;99176.50;;;3.74;61.89
27712;BME280;2377;51.734;8.950;2023-02-28T09:38:53;99187.38;;;3.85;58.76
27712;BME280;2377;51.734;8.950;2023-02-28T09:41:23;99187.00;;;3.70;57.87
27712;BME280;2377;51.734;8.950;2023-02-28T09:43:57;99186.75;;;3.63;58.21
27712;BME280;2377;51.734;8.950;2023-02-28T09:46:33;99182.22;;;3.86;59.50
27712;BME280;2377;51.734;8.950;2023-02-28T09:49:08;99179.22;;;4.10;58.23
27712;BME280;2377;51.734;8.950;2023-02-28T09:51:48;99192.00;;;4.09;58.33
27712;BME280;2377;51.734;8.950;2023-02-28T09:54:21;99190.09;;;4.30;57.98
27712;BME280;2377;51.734;8.950;2023-02-28T09:56:51;99193.41;;;4.40;56.95
27712;BME280;2377;51.734;8.950;2023-02-28T09:59:39;99190.03;;;4.12;57.75
27712;BME280;2377;51.734;8.950;2023-02-28T10:02:24;99202.16;;;3.89;56.95
27712;BME280;2377;51.734;8.950;2023-02-28T10:05:03;99197.25;;;3.68;57.80
27712;BME280;2377;51.734;8.950;2023-02-28T10:07:50;99191.63;;;3.45;58.11
27712;BME280;2377;51.734;8.950;2023-02-28T10:10:25;99188.44;;;3.33;58.84
27712;BME280;2377;51.734;8.950;2023-02-28T10:12:57;99187.91;;;3.20;58.04
27712;BME280;2377;51.734;8.950;2023-02-28T10:15:30;99184.69;;;3.08;58.73
27712;BME280;2377;51.734;8.950;2023-02-28T10:18:02;99177.47;;;2.94;59.65
27712;BME280;2377;51.734;8.950;2023-02-28T10:20:36;99184.38;;;2.92;59.76
27712;BME280;2377;51.734;8.950;2023-02-28T10:23:11;99183.06;;;3.07;60.15
27712;BME280;2377;51.734;8.950;2023-02-28T10:25:40;99182.31;;;3.36;60.79
27712;BME280;2377;51.734;8.950;2023-02-28T10:28:15;99182.59;;;3.52;60.51
27712;BME280;2377;51.734;8.950;2023-02-28T10:30:47;99177.41;;;3.54;59.60
27712;BME280;2377;51.734;8.950;2023-02-28T10:33:23;99175.69;;;3.54;59.70
27712;BME280;2377;51.734;8.950;2023-02-28T10:35:53;99177.03;;;3.58;60.64
27712;BME280;2377;51.734;8.950;2023-02-28T10:38:24;99181.13;;;3.59;60.40
27712;BME280;2377;51.734;8.950;2023-02-28T10:40:53;99179.41;;;3.50;61.00
27712;BME280;2377;51.734;8.950;2023-02-28T10:43:29;99180.47;;;3.48;61.20
27712;BME280;2377;51.734;8.950;2023-02-28T10:46:04;99180.06;;;3.52;61.68
27712;BME280;2377;51.734;8.950;2023-02-28T10:48:39;99173.56;;;3.50;60.73
27712;BME280;2377;51.734;8.950;2023-02-28T10:51:12;99165.56;;;3.45;60.34
27712;BME280;2377;51.734;8.950;2023-02-28T10:53:48;99166.50;;;3.34;60.68
27712;BME280;2377;51.734;8.950;2023-02-28T10:56:18;99162.66;;;3.30;60.70
27712;BME280;2377;51.734;8.950;2023-02-28T10:58:52;99170.34;;;3.28;62.26
27712;BME280;2377;51.734;8.950;2023-02-28T11:01:22;99162.25;;;3.25;61.20
27712;BME280;2377;51.734;8.950;2023-02-28T11:03:51;99165.56;;;3.25;60.47
27712;BME280;2377;51.734;8.950;2023-02-28T11:06:22;99161.03;;;3.29;59.99
27712;BME280;2377;51.734;8.950;2023-02-28T11:08:53;99158.66;;;3.37;59.13
27712;BME280;2377;51.734;8.950;2023-02-28T11:11:25;99156.81;;;3.29;56.41
27712;BME280;2377;51.734;8.950;2023-02-28T11:13:56;99169.28;;;3.31;57.66
27712;BME280;2377;51.734;8.950;2023-02-28T11:16:33;99161.84;;;3.39;59.43
27712;BME280;2377;51.734;8.950;2023-02-28T11:19:02;99160.66;;;3.53;57.71
27712;BME280;2377;51.734;8.950;2023-02-28T11:21:36;99150.81;;;3.59;57.86
27712;BME280;2377;51.734;8.950;2023-02-28T11:24:23;99158.81;;;3.65;58.05
27712;BME280;2377;51.734;8.950;2023-02-28T11:26:51;99161.56;;;3.71;56.84
27712;BME280;2377;51.734;8.950;2023-02-28T11:29:21;99147.47;;;3.69;59.07
27712;BME280;2377;51.734;8.950;2023-02-28T11:32:19;99149.31;;;3.67;59.84
27712;BME280;2377;51.734;8.950;2023-02-28T11:35:01;99148.28;;;3.59;58.91
27712;BME280;2377;51.734;8.950;2023-02-28T11:37:31;99140.56;;;3.61;59.24
27712;BME280;2377;51.734;8.950;2023-02-28T11:39:59;99137.63;;;3.66;60.20
27712;BME280;2377;51.734;8.950;2023-02-28T11:42:45;99144.56;;;3.64;58.95
27712;BME280;2377;51.734;8.950;2023-02-28T11:45:39;99147.09;;;3.64;59.77
27712;BME280;2377;51.734;8.950;2023-02-28T11:48:20;99140.44;;;3.63;58.65
27712;BME280;2377;51.734;8.950;2023-02-28T11:51:10;99130.44;;;3.61;59.18
27712;BME280;2377;51.734;8.950;2023-02-28T11:54:08;99141.34;;;3.62;59.68
27712;BME280;2377;51.734;8.950;2023-02-28T11:56:44;99137.34;;;3.69;59.71
27712;BME280;2377;51.734;8.950;2023-02-28T11:59:41;99132.56;;;3.66;58.90
27712;BME280;2377;51.734;8.950;2023-02-28T12:02:25;99126.84;;;3.64;59.10
27712;BME280;2377;51.734;8.950;2023-02-28T12:05:14;99119.94;;;3.66;59.12
27712;BME280;2377;51.734;8.950;2023-02-28T12:07:58;99128.97;;;3.78;61.08
27712;BME280;2377;51.734;8.950;2023-02-28T12:10:44;99125.09;;;3.93;61.57
27712;BME280;2377;51.734;8.950;2023-02-28T12:13:25;99115.50;;;3.87;59.20
27712;BME280;2377;51.734;8.950;2023-02-28T12:16:29;99115.94;;;3.73;59.29
27712;BME280;2377;51.734;8.950;2023-02-28T12:19:17;99111.00;;;3.71;60.07
27712;BME280;2377;51.734;8.950;2023-02-28T12:22:10;99111.81;;;3.81;60.21
27712;BME280;2377;51.734;8.950;2023-02-28T12:25:43;99111.63;;;4.02;59.25
27712;BME280;2377;51.734;8.950;2023-02-28T12:28:17;99098.41;;;4.09;60.20
27712;BME280;2377;51.734;8.950;2023-02-28T12:30:54;99104.00;;;4.12;59.29
27712;BME280;2377;51.734;8.950;2023-02-28T12:33:31;99101.31;;;4.14;58.14
27712;BME280;2377;51.734;8.950;2023-02-28T12:36:05;99098.41;;;4.09;57.01
27712;BME280;2377;51.734;8.950;2023-02-28T12:38:42;99100.31;;;3.97;57.19
27712;BME280;2377;51.734;8.950;2023-02-28T12:41:16;99110.16;;;4.00;57.86
27712;BME280;2377;51.734;8.950;2023-02-28T12:43:53;99095.50;;;4.03;58.96
27712;BME280;2377;51.734;8.950;2023-02-28T12:46:30;99088.81;;;4.12;57.15
27712;BME280;2377;51.734;8.950;2023-02-28T12:49:05;99089.47;;;4.14;57.11
27712;BME280;2377;51.734;8.950;2023-02-28T12:51:35;99090.56;;;4.12;55.67
27712;BME280;2377;51.734;8.950;2023-02-28T12:54:16;99089.91;;;4.10;56.56
27712;BME280;2377;51.734;8.950;2023-02-28T12:56:54;99081.88;;;4.14;56.02
27712;BME280;2377;51.734;8.950;2023-02-28T12:59:33;99083.22;;;4.09;55.10
27712;BME280;2377;51.734;8.950;2023-02-28T13:02:40;99075.91;;;4.06;55.29
27712;BME280;2377;51.734;8.950;2023-02-28T13:05:56;99085.38;;;4.03;55.57
27712;BME280;2377;51.734;8.950;2023-02-28T13:09:04;99080.56;;;4.10;56.09
27712;BME280;2377;51.734;8.950;2023-02-28T13:11:33;99076.25;;;4.20;56.30
27712;BME280;2377;51.734;8.950;2023-02-28T13:14:26;99070.88;;;4.33;55.73
27712;BME280;2377;51.734;8.950;2023-02-28T13:17:01;99072.06;;;4.39;56.05
27712;BME280;2377;51.734;8.950;2023-02-28T13:19:32;99074.25;;;4.52;55.83
27712;BME280;2377;51.734;8.950;2023-02-28T13:22:00;99075.78;;;4.62;56.05
27712;BME280;2377;51.734;8.950;2023-02-28T13:24:46;99065.59;;;4.72;54.65
27712;BME280;2377;51.734;8.950;2023-02-28T13:27:36;99056.13;;;4.74;54.50
27712;BME280;2377;51.734;8.950;2023-02-28T13:31:05;99064.94;;;4.70;55.12
27712;BME280;2377;51.734;8.950;2023-02-28T13:33:34;99065.88;;;4.69;55.29
27712;BME280;2377;51.734;8.950;2023-02-28T13:36:22;99067.63;;;4.69;54.63
27712;BME280;2377;51.734;8.950;2023-02-28T13:38:50;99068.06;;;4.64;54.59
27712;BME280;2377;51.734;8.950;2023-02-28T13:41:44;99061.31;;;4.55;53.98
27712;BME280;2377;51.734;8.950;2023-02-28T13:44:15;99071.31;;;4.56;54.90
27712;BME280;2377;51.734;8.950;2023-02-28T13:47:23;99060.94;;;4.50;54.16
27712;BME280;2377;51.734;8.950;2023-02-28T13:49:52;99065.44;;;4.56;54.82
27712;BME280;2377;51.734;8.950;2023-02-28T13:52:23;99068.47;;;4.59;55.56
27712;BME280;2377;51.734;8.950;2023-02-28T13:55:16;99068.72;;;4.66;53.83